Time;durP1;ratioP1;P1;durP2;ratioP2;P2;SDS_P1;SDS_P2;PMS_P1;PMS_P2;Temp;Humidity;BMP_temperature;BMP_pressure;BME280_temperature;BME280_humidity;BME280_pressure;Samples;Min_cycle;Max_cycle;Signal;HPM_P1;HPM_P2
2022/06/01 00:02:29;;;;;;;3.20;2.00;;;;;;;12.56;52.48;98659.97;2619051;54;20034;-66
2022/06/01 00:04:59;;;;;;;4.10;2.30;;;;;;;12.66;52.48;98656.91;2619049;54;20042;-64
2022/06/01 00:07:28;;;;;;;2.55;2.10;;;;;;;12.79;52.39;98656.84;2618970;54;20038;-65
2022/06/01 00:10:01;;;;;;;3.22;2.60;;;;;;;12.87;52.08;98658.47;2618777;54;20044;-65
2022/06/01 00:12:30;;;;;;;4.20;3.00;;;;;;;12.76;51.57;98659.09;2621471;54;20033;-64
2022/06/01 00:15:00;;;;;;;4.07;3.15;;;;;;;12.62;52.00;98653.03;2623894;54;20546;-64
2022/06/01 00:17:30;;;;;;;3.03;2.55;;;;;;;12.37;52.46;98655.56;2623365;54;20046;-65
2022/06/01 00:19:59;;;;;;;4.18;2.60;;;;;;;12.34;53.41;98659.44;2622002;54;20035;-64
2022/06/01 00:22:29;;;;;;;2.78;2.25;;;;;;;12.38;53.60;98668.59;2622342;54;20027;-65
2022/06/01 00:25:01;;;;;;;5.53;2.85;;;;;;;12.47;53.39;98657.78;2621081;54;20558;-64
2022/06/01 00:27:31;;;;;;;2.80;2.50;;;;;;;12.39;53.04;98656.16;2621136;54;20070;-65
2022/06/01 00:30:00;;;;;;;3.55;2.42;;;;;;;12.40;52.76;98653.28;2621422;54;20558;-65
2022/06/01 00:32:30;;;;;;;2.53;2.30;;;;;;;12.28;53.19;98652.28;2620870;54;20034;-65
2022/06/01 00:35:01;;;;;;;4.07;2.97;;;;;;;12.16;53.53;98661.91;2621018;54;20038;-66
2022/06/01 00:37:31;;;;;;;3.78;2.55;;;;;;;12.08;53.71;98657.66;2621140;54;20038;-67
2022/06/01 00:40:03;;;;;;;2.78;2.58;;;;;;;11.99;54.10;98658.06;2622228;54;20035;-64
2022/06/01 00:42:36;;;;;;;3.83;2.08;;;;;;;11.97;54.24;98666.22;2622261;54;20042;-65
2022/06/01 00:45:08;;;;;;;3.15;2.10;;;;;;;12.01;53.60;98659.47;2622404;54;20034;-65
2022/06/01 00:47:38;;;;;;;4.05;2.30;;;;;;;11.97;53.89;98657.47;2621161;54;20026;-63
2022/06/01 00:50:12;;;;;;;4.65;2.38;;;;;;;11.97;53.93;98660.91;2620469;54;20026;-64
2022/06/01 00:52:47;;;;;;;3.10;2.70;;;;;;;11.99;53.74;98658.84;2620502;54;20038;-66
2022/06/01 00:55:22;;;;;;;2.70;2.42;;;;;;;12.02;53.60;98660.28;2620497;47;20569;-65
2022/06/01 00:57:59;;;;;;;4.05;2.08;;;;;;;11.96;53.49;98663.75;2620903;54;20037;-65
2022/06/01 01:00:32;;;;;;;6.63;2.30;;;;;;;11.94;54.03;98658.66;2619474;54;20038;-65
2022/06/01 01:03:06;;;;;;;2.92;2.00;;;;;;;11.83;53.79;98662.72;2618612;54;20171;-66
2022/06/01 01:05:36;;;;;;;5.93;2.40;;;;;;;11.72;54.33;98665.16;2618731;54;20042;-66
2022/06/01 01:08:07;;;;;;;3.40;2.47;;;;;;;11.75;54.40;98662.91;2618093;54;20038;-65
2022/06/01 01:10:41;;;;;;;2.33;2.05;;;;;;;11.76;54.66;98661.91;2618494;54;20034;-65
2022/06/01 01:13:15;;;;;;;3.45;2.30;;;;;;;11.74;54.72;98661.28;2618086;54;20031;-66
2022/06/01 01:15:55;;;;;;;3.17;2.50;;;;;;;11.75;54.68;98656.81;2618785;54;20061;-66
2022/06/01 01:18:29;;;;;;;2.47;2.20;;;;;;;11.71;54.54;98660.88;2617925;54;20105;-65
2022/06/01 01:21:10;;;;;;;4.47;2.20;;;;;;;11.82;54.63;98658.44;2619144;39;20418;-65
2022/06/01 01:23:49;;;;;;;3.53;2.10;;;;;;;11.80;54.33;98663.13;2618659;54;20041;-65
2022/06/01 01:26:24;;;;;;;2.13;2.03;;;;;;;11.81;54.26;98656.81;2618440;54;20033;-65
2022/06/01 01:28:54;;;;;;;2.60;2.40;;;;;;;11.79;54.03;98658.03;2618434;54;20125;-65
2022/06/01 01:31:26;;;;;;;4.25;2.35;;;;;;;11.77;54.30;98660.88;2618938;39;20508;-65
2022/06/01 01:33:57;;;;;;;2.70;2.17;;;;;;;11.92;53.87;98655.44;2618040;54;20554;-65
2022/06/01 01:36:34;;;;;;;3.92;2.60;;;;;;;11.88;53.35;98651.56;2617725;47;20068;-65
2022/06/01 01:39:09;;;;;;;3.35;2.22;;;;;;;11.93;54.07;98659.69;2618134;54;20029;-65
2022/06/01 01:41:44;;;;;;;5.93;2.13;;;;;;;11.90;53.99;98647.66;2618303;54;20038;-65
2022/06/01 01:44:19;;;;;;;2.50;2.10;;;;;;;11.84;53.62;98647.69;2618276;54;20030;-65
2022/06/01 01:46:50;;;;;;;2.80;2.53;;;;;;;11.84;54.01;98650.34;2618443;54;20034;-65
2022/06/01 01:49:23;;;;;;;2.33;2.13;;;;;;;11.90;53.88;98639.72;2618279;54;20033;-65
2022/06/01 01:51:54;;;;;;;3.05;2.60;;;;;;;11.87;54.05;98645.41;2617586;54;20046;-65
2022/06/01 01:54:35;;;;;;;3.22;2.45;;;;;;;11.88;54.50;98640.97;2618343;54;20530;-65
2022/06/01 01:57:22;;;;;;;3.53;2.85;;;;;;;11.98;54.12;98641.34;2618278;54;20038;-65
2022/06/01 02:00:06;;;;;;;4.53;2.50;;;;;;;12.12;53.76;98642.13;2618133;54;20554;-66
2022/06/01 02:02:38;;;;;;;;;;;;;;;12.11;53.39;98659.88;2618448;54;20034;-64
2022/06/01 02:08:05;;;;;;;2.50;2.30;;;;;;;12.18;54.46;98649.28;2617400;54;20042;-65
2022/06/01 02:13:23;;;;;;;2.90;2.35;;;;;;;12.25;54.72;98654.56;2618277;54;20034;-65
2022/06/01 02:15:55;;;;;;;4.35;2.60;;;;;;;12.23;54.45;98651.28;2618647;54;20033;-65
2022/06/01 02:18:29;;;;;;;5.97;2.50;;;;;;;12.25;54.71;98652.72;2618096;54;20027;-64
2022/06/01 02:21:03;;;;;;;3.72;2.22;;;;;;;12.27;54.70;98655.16;2618791;39;20433;-65
2022/06/01 02:23:34;;;;;;;4.03;2.58;;;;;;;12.23;54.26;98657.41;2618380;54;20030;-64
2022/06/01 02:26:04;;;;;;;3.00;2.70;;;;;;;12.12;54.70;98658.03;2617821;54;20041;-64
2022/06/01 02:28:40;;;;;;;2.50;2.30;;;;;;;12.11;54.61;98667.81;2618473;54;20156;-64
2022/06/01 02:31:11;;;;;;;3.65;2.80;;;;;;;12.11;55.29;98674.94;2617807;54;20030;-65
2022/06/01 02:33:44;;;;;;;3.08;2.28;;;;;;;12.03;55.33;98677.81;2618377;54;20023;-64
2022/06/01 02:36:17;;;;;;;2.85;2.55;;;;;;;11.89;55.46;98691.06;2618546;54;20025;-65
2022/06/01 02:38:50;;;;;;;3.20;2.55;;;;;;;11.79;55.53;98687.16;2618171;54;20038;-65
2022/06/01 02:44:05;;;;;;;5.15;3.97;;;;;;;11.81;55.81;98670.06;2618811;39;20418;-65
2022/06/01 02:46:36;;;;;;;4.10;3.27;;;;;;;11.89;55.59;98667.22;2618725;54;20037;-65
2022/06/01 02:49:06;;;;;;;5.13;2.97;;;;;;;11.97;55.44;98674.16;2618327;54;20267;-65
2022/06/01 02:51:36;;;;;;;3.00;2.70;;;;;;;12.01;54.92;98679.88;2618543;54;20042;-65
2022/06/01 02:54:06;;;;;;;3.88;3.08;;;;;;;12.00;55.04;98680.88;2618847;39;20414;-66
2022/06/01 02:56:36;;;;;;;4.60;2.90;;;;;;;12.01;55.17;98674.56;2619399;54;20027;-65
2022/06/01 02:59:08;;;;;;;3.42;3.10;;;;;;;12.08;54.92;98680.66;2618812;54;20065;-65
2022/06/01 03:01:38;;;;;;;6.53;3.53;;;;;;;12.12;54.66;98677.41;2618538;47;20518;-64
2022/06/01 03:04:08;;;;;;;3.25;2.78;;;;;;;12.12;54.60;98671.28;2619145;54;20026;-65
2022/06/01 03:06:38;;;;;;;4.07;2.90;;;;;;;12.14;54.95;98666.59;2619519;39;20431;-65
2022/06/01 03:09:27;;;;;;;2.95;2.75;;;;;;;12.07;54.52;98666.59;2619459;46;20057;-65
2022/06/01 03:11:57;;;;;;;7.88;3.47;;;;;;;12.08;54.73;98673.56;2619834;54;20118;-65
2022/06/01 03:14:29;;;;;;;3.78;3.33;;;;;;;12.10;54.96;98668.03;2619997;54;20033;-64
2022/06/01 03:17:00;;;;;;;4.78;3.30;;;;;;;12.08;54.51;98659.47;2619008;47;20033;-65
2022/06/01 03:19:30;;;;;;;8.20;3.40;;;;;;;12.07;54.90;98656.00;2619026;54;20578;-64
2022/06/01 03:21:59;;;;;;;3.92;3.40;;;;;;;11.88;54.92;98660.31;2619359;54;20030;-64
2022/06/01 03:24:30;;;;;;;3.65;3.35;;;;;;;11.67;55.63;98665.75;2618409;47;20022;-65
2022/06/01 03:27:00;;;;;;;3.65;3.30;;;;;;;11.57;55.96;98663.50;2619098;54;20802;-64
2022/06/01 03:29:32;;;;;;;4.03;3.05;;;;;;;11.46;56.77;98668.59;2618736;54;20027;-65
2022/06/01 03:32:02;;;;;;;3.90;3.20;;;;;;;11.48;56.66;98677.16;2618837;54;20551;-66
2022/06/01 03:34:31;;;;;;;7.60;3.60;;;;;;;11.37;56.85;98665.31;2618123;54;20022;-66
2022/06/01 03:37:02;;;;;;;3.67;3.38;;;;;;;11.35;57.06;98670.00;2618905;54;20044;-65
2022/06/01 03:39:32;;;;;;;3.45;3.15;;;;;;;11.25;57.20;98670.38;2618530;54;20030;-66
2022/06/01 03:42:01;;;;;;;3.92;3.50;;;;;;;11.27;57.63;98673.66;2618743;54;20022;-65
2022/06/01 03:47:16;;;;;;;5.82;3.85;;;;;;;11.38;57.49;98672.25;2618662;54;20034;-65
2022/06/01 03:49:46;;;;;;;3.97;3.50;;;;;;;11.43;57.54;98676.91;2618659;54;20078;-64
2022/06/01 03:52:16;;;;;;;6.00;4.00;;;;;;;11.37;57.39;98673.25;2618373;54;20566;-65
2022/06/01 03:54:45;;;;;;;6.18;4.28;;;;;;;11.22;57.63;98668.13;2618709;54;20122;-65
2022/06/01 03:57:15;;;;;;;8.02;5.85;;;;;;;11.16;58.19;98677.69;2618510;54;20038;-65
2022/06/01 03:59:47;;;;;;;4.35;3.83;;;;;;;11.09;57.93;98676.03;2618703;54;20026;-65
2022/06/01 04:02:17;;;;;;;5.55;3.75;;;;;;;11.03;58.57;98676.84;2618636;54;20031;-65
2022/06/01 04:04:46;;;;;;;7.32;4.55;;;;;;;11.11;58.58;98674.03;2618377;54;20022;-65
2022/06/01 04:07:16;;;;;;;4.35;3.92;;;;;;;11.26;58.50;98672.00;2618483;54;20038;-65
2022/06/01 04:09:46;;;;;;;4.72;3.30;;;;;;;11.36;57.84;98676.94;2618701;54;20042;-65
2022/06/01 04:12:15;;;;;;;5.70;3.90;;;;;;;11.46;57.86;98682.63;2618306;54;20026;-66
2022/06/01 04:14:47;;;;;;;5.18;3.72;;;;;;;11.59;57.41;98680.03;2618696;54;20038;-65
2022/06/01 04:17:17;;;;;;;5.22;3.45;;;;;;;11.46;57.23;98677.34;2618574;54;20546;-65
2022/06/01 04:19:47;;;;;;;10.38;3.28;;;;;;;11.46;57.29;98679.19;2619012;54;20037;-66
2022/06/01 04:22:17;;;;;;;4.07;3.63;;;;;;;11.35;57.93;98678.75;2620214;39;20419;-66
2022/06/01 04:24:47;;;;;;;4.10;3.15;;;;;;;11.31;57.90;98676.72;2621814;39;20430;-66
2022/06/01 04:27:17;;;;;;;3.85;3.25;;;;;;;11.25;58.02;98688.09;2619742;54;20034;-65
2022/06/01 04:29:49;;;;;;;5.43;3.45;;;;;;;11.27;58.23;98684.25;2620051;54;20034;-66
2022/06/01 04:32:27;;;;;;;5.53;3.65;;;;;;;11.37;57.33;98682.00;2619815;54;20039;-65
2022/06/01 04:34:57;;;;;;;4.10;3.60;;;;;;;11.33;57.63;98682.63;2618809;54;20022;-64
2022/06/01 04:37:27;;;;;;;3.40;3.10;;;;;;;11.41;57.69;98685.06;2619169;39;20416;-64
2022/06/01 04:39:56;;;;;;;4.18;3.33;;;;;;;11.43;57.09;98692.81;2618549;54;20590;-64
2022/06/01 04:42:26;;;;;;;3.70;3.30;;;;;;;11.48;57.41;98688.56;2617920;54;20066;-65
2022/06/01 04:44:58;;;;;;;8.43;3.90;;;;;;;11.50;57.35;98691.00;2618691;54;20033;-65
2022/06/01 04:47:28;;;;;;;5.22;4.45;;;;;;;11.65;56.53;98695.09;2618958;54;20550;-65
2022/06/01 04:49:58;;;;;;;4.25;3.47;;;;;;;11.78;56.77;98698.78;2619892;54;20039;-65
2022/06/01 04:52:27;;;;;;;3.92;3.30;;;;;;;11.84;56.54;98695.34;2620750;54;20038;-65
2022/06/01 04:54:57;;;;;;;4.15;3.70;;;;;;;12.07;56.44;98695.75;2620968;54;20666;-65
2022/06/01 04:57:27;;;;;;;4.50;3.83;;;;;;;12.15;55.92;98692.06;2619770;54;20038;-66
2022/06/01 04:59:59;;;;;;;4.88;3.88;;;;;;;12.11;55.50;98696.16;2621314;54;20031;-66
2022/06/01 05:02:29;;;;;;;4.50;3.85;;;;;;;12.18;55.67;98696.97;2620077;47;20022;-65
2022/06/01 05:04:58;;;;;;;4.72;3.13;;;;;;;12.35;55.59;98697.34;2621588;54;20026;-66
2022/06/01 05:07:28;;;;;;;4.93;3.35;;;;;;;12.37;55.61;98701.44;2621292;54;20042;-65
2022/06/01 05:09:58;;;;;;;4.55;3.55;;;;;;;12.50;55.19;98702.44;2621622;54;20137;-65
2022/06/01 05:12:27;;;;;;;5.00;4.15;;;;;;;12.60;54.62;98700.16;2620639;54;20053;-65
2022/06/01 05:15:00;;;;;;;5.25;3.25;;;;;;;12.56;55.50;98698.94;2619828;47;20074;-65
2022/06/01 05:17:32;;;;;;;4.38;3.33;;;;;;;12.55;55.67;98699.97;2617724;47;20027;-65
2022/06/01 05:20:02;;;;;;;4.65;3.65;;;;;;;12.63;55.50;98692.59;2618573;54;20027;-65
2022/06/01 05:22:31;;;;;;;4.53;3.75;;;;;;;12.80;54.61;98694.78;2617934;54;20027;-65
2022/06/01 05:25:01;;;;;;;5.35;4.72;;;;;;;12.87;54.61;98692.94;2617718;54;20143;-66
2022/06/01 05:27:31;;;;;;;8.88;6.40;;;;;;;12.90;54.40;98684.56;2618412;54;20042;-65
2022/06/01 05:30:03;;;;;;;5.32;4.47;;;;;;;12.86;54.56;98691.31;2618633;54;20557;-64
2022/06/01 05:32:33;;;;;;;7.72;5.28;;;;;;;12.93;54.98;98686.78;2618541;54;20041;-63
2022/06/01 05:35:02;;;;;;;7.68;5.15;;;;;;;13.11;54.20;98686.09;2618371;54;20027;-64
2022/06/01 05:37:32;;;;;;;5.45;4.88;;;;;;;13.13;53.92;98686.69;2617671;54;20030;-62
2022/06/01 05:40:03;;;;;;;5.93;3.85;;;;;;;13.17;53.61;98681.78;2618450;54;20038;-64
2022/06/01 05:42:32;;;;;;;4.80;3.53;;;;;;;13.17;53.36;98687.91;2618544;54;20030;-64
2022/06/01 05:45:06;;;;;;;5.20;3.97;;;;;;;13.28;53.14;98691.78;2617850;47;20022;-64
2022/06/01 05:47:36;;;;;;;8.48;4.30;;;;;;;13.37;52.63;98703.75;2618265;54;20037;-64
2022/06/01 05:50:08;;;;;;;6.93;4.95;;;;;;;13.43;52.86;98700.28;2618204;54;20039;-64
2022/06/01 05:52:38;;;;;;;5.40;4.25;;;;;;;13.49;52.30;98695.94;2618359;54;20575;-64
2022/06/01 05:55:10;;;;;;;7.35;4.60;;;;;;;13.52;52.56;98693.66;2618070;54;20026;-64
2022/06/01 05:57:40;;;;;;;8.55;4.18;;;;;;;13.67;52.61;98696.00;2617900;54;20042;-64
2022/06/01 06:00:16;;;;;;;4.80;4.07;;;;;;;13.88;52.01;98693.00;2617606;54;20041;-64
2022/06/01 06:02:46;;;;;;;8.38;5.10;;;;;;;13.95;51.91;98695.59;2618215;54;20034;-64
2022/06/01 06:07:59;;;;;;;7.15;4.60;;;;;;;13.97;51.24;98700.72;2617905;54;20037;-65
2022/06/01 06:10:30;;;;;;;9.90;4.30;;;;;;;14.06;51.48;98699.41;2618368;47;20030;-65
2022/06/01 06:13:00;;;;;;;5.60;4.47;;;;;;;14.14;50.47;98699.13;2618493;47;20026;-64
2022/06/01 06:15:32;;;;;;;5.60;3.85;;;;;;;14.18;51.01;98699.50;2618843;54;20034;-64
2022/06/01 06:18:02;;;;;;;8.07;4.00;;;;;;;14.35;50.91;98700.56;2618558;54;20026;-64
2022/06/01 06:20:32;;;;;;;7.25;4.95;;;;;;;14.49;50.64;98706.59;2618593;54;20034;-64
2022/06/01 06:23:02;;;;;;;6.30;4.70;;;;;;;14.63;49.84;98708.09;2618904;39;20121;-64
2022/06/01 06:25:31;;;;;;;6.43;4.15;;;;;;;14.75;49.80;98708.19;2617815;51;20031;-64
2022/06/01 06:28:01;;;;;;;3.85;3.47;;;;;;;14.75;49.76;98709.00;2618110;54;20041;-64
2022/06/01 06:30:33;;;;;;;7.25;4.70;;;;;;;14.77;49.70;98709.56;2618177;54;20046;-65
2022/06/01 06:33:03;;;;;;;5.70;3.78;;;;;;;14.76;49.40;98710.59;2618643;39;20432;-64
2022/06/01 06:35:32;;;;;;;5.75;4.22;;;;;;;14.79;49.50;98714.69;2618535;54;20028;-65
2022/06/01 06:38:03;;;;;;;5.40;3.92;;;;;;;14.82;49.76;98719.56;2618286;54;20662;-63
2022/06/01 22:02:43;;;;;;;;;;;;;;;15.17;47.25;99033.16;2596645;47;20062;-67
2022/06/01 22:05:13;;;;;;;2.28;2.00;;;;;;;15.22;47.38;99031.44;2619688;47;20426;-66
2022/06/01 22:07:43;;;;;;;2.70;1.95;;;;;;;15.19;47.34;99031.91;2620917;54;20034;-66
2022/06/01 22:10:15;;;;;;;3.95;1.92;;;;;;;15.11;48.11;99038.31;2626161;47;20034;-66
2022/06/01 22:12:42;;;;;;;3.10;1.92;;;;;;;15.11;48.26;99037.50;2628396;54;20027;-66
2022/06/01 22:15:13;;;;;;;2.88;1.90;;;;;;;15.08;48.12;99038.75;2627383;54;20031;-65
2022/06/01 22:17:46;;;;;;;3.40;2.10;;;;;;;15.12;47.91;99041.78;2628779;54;20042;-65
2022/06/01 22:20:17;;;;;;;3.00;2.10;;;;;;;14.99;48.44;99034.72;2628211;54;20046;-67
2022/06/01 22:22:48;;;;;;;2.75;2.28;;;;;;;14.97;48.52;99039.41;2626996;54;20053;-66
2022/06/01 22:25:20;;;;;;;4.30;2.47;;;;;;;15.04;48.57;99037.53;2626976;54;20049;-66
2022/06/01 22:27:51;;;;;;;6.07;3.20;;;;;;;15.07;48.53;99036.31;2626437;54;20078;-66
2022/06/01 22:30:22;;;;;;;4.35;2.92;;;;;;;15.11;48.64;99040.16;2626303;54;20564;-66
2022/06/01 22:32:54;;;;;;;6.78;4.22;;;;;;;15.14;48.54;99042.38;2626064;54;20026;-66
2022/06/01 22:38:07;;;;;;;6.57;3.55;;;;;;;15.08;48.78;99054.72;2618839;47;20053;-65
2022/06/01 22:40:39;;;;;;;5.78;2.65;;;;;;;15.05;48.93;99051.66;2619385;54;20046;-66
2022/06/01 22:43:09;;;;;;;7.97;2.83;;;;;;;15.03;49.14;99053.75;2620764;54;20085;-65
2022/06/01 22:45:39;;;;;;;3.35;1.80;;;;;;;14.76;49.82;99059.19;2622399;54;20067;-67
2022/06/01 22:48:15;;;;;;;3.85;2.35;;;;;;;14.63;50.44;99061.13;2623015;39;20407;-66
2022/06/01 22:50:51;;;;;;;2.72;1.83;;;;;;;14.59;50.33;99069.53;2622908;54;20027;-66
2022/06/01 22:53:24;;;;;;;4.65;1.92;;;;;;;14.29;51.02;99066.56;2620101;47;20019;-66
2022/06/01 22:55:54;;;;;;;4.03;1.83;;;;;;;14.29;51.01;99068.41;2621900;54;20033;-67
2022/06/01 22:58:24;;;;;;;4.32;2.40;;;;;;;14.33;51.13;99073.09;2621635;39;20529;-66
2022/06/01 23:00:53;;;;;;;4.40;2.00;;;;;;;14.35;50.76;99070.22;2621660;54;20038;-65
2022/06/01 23:03:26;;;;;;;4.90;2.47;;;;;;;14.30;51.68;99073.50;2621500;54;20030;-67
2022/06/01 23:05:56;;;;;;;2.20;1.80;;;;;;;14.26;51.02;99069.63;2622743;54;20031;-67
2022/06/01 23:08:26;;;;;;;3.15;1.83;;;;;;;14.16;51.48;99074.56;2623622;39;20407;-68
2022/06/01 23:10:56;;;;;;;3.45;2.00;;;;;;;14.14;51.53;99073.97;2623312;54;20026;-67
2022/06/01 23:13:27;;;;;;;3.13;2.22;;;;;;;14.02;51.97;99075.63;2622602;54;20026;-66
2022/06/01 23:16:00;;;;;;;4.95;2.00;;;;;;;14.02;51.89;99067.66;2623181;54;20027;-66
2022/06/01 23:18:32;;;;;;;5.43;2.28;;;;;;;14.03;52.36;99083.38;2623921;54;20031;-67
2022/06/01 23:21:02;;;;;;;2.22;2.00;;;;;;;13.94;52.26;99081.16;2622844;54;20046;-66
2022/06/01 23:23:34;;;;;;;7.13;2.92;;;;;;;13.91;52.81;99076.25;2622167;54;20038;-67
2022/06/01 23:26:10;;;;;;;3.20;2.05;;;;;;;13.97;52.92;99078.91;2622945;54;20069;-67
2022/06/01 23:28:42;;;;;;;3.33;2.13;;;;;;;13.96;52.60;99071.13;2622929;54;20037;-67
2022/06/01 23:31:25;;;;;;;3.67;2.10;;;;;;;13.99;52.91;99076.03;2623481;54;20089;-66
2022/06/01 23:34:12;;;;;;;2.53;2.00;;;;;;;13.95;52.88;99083.59;2624786;31;20492;-66
2022/06/01 23:37:02;;;;;;;2.78;2.47;;;;;;;13.94;53.38;99078.50;2624564;54;20027;-66
2022/06/01 23:39:55;;;;;;;4.18;1.90;;;;;;;13.90;53.24;99078.09;2625069;54;20034;-66
2022/06/01 23:42:43;;;;;;;2.50;2.30;;;;;;;13.93;53.38;99069.72;2625099;54;20125;-66
2022/06/01 23:45:29;;;;;;;4.93;2.40;;;;;;;13.97;53.32;99073.59;2625302;39;20497;-67
2022/06/01 23:48:11;;;;;;;3.33;2.05;;;;;;;13.90;53.47;99074.63;2623763;54;20030;-68
2022/06/01 23:50:51;;;;;;;2.17;1.98;;;;;;;13.81;53.29;99072.19;2623114;54;20046;-66
2022/06/01 23:53:48;;;;;;;3.10;2.08;;;;;;;13.73;53.50;99069.75;2623509;54;20037;-67
2022/06/01 23:56:43;;;;;;;2.50;2.30;;;;;;;13.43;54.16;99079.16;2623831;54;20034;-68
2022/06/01 23:59:28;;;;;;;2.53;2.10;;;;;;;13.35;54.37;99082.84;2624247;54;20033;-66
